Time;durP1;ratioP1;P1;durP2;ratioP2;P2;SDS_P1;SDS_P2;PMS_P1;PMS_P2;Temp;Humidity;BMP_temperature;BMP_pressure;BME280_temperature;BME280_humidity;BME280_pressure;Samples;Min_cycle;Max_cycle;Signal;HPM_P1;HPM_P2
2022/01/24 00:02:22;;;;;;;2.57;2.30;;;8.10;99.90;;;;;;5088014;28;20184;-41
2022/01/24 00:04:49;;;;;;;3.23;2.63;;;8.00;99.90;;;;;;5088832;28;20181;-40
2022/01/24 00:07:19;;;;;;;3.20;2.70;;;8.20;99.90;;;;;;5079228;28;20599;-39
2022/01/24 00:09:45;;;;;;;3.33;2.37;;;8.10;99.90;;;;;;5081105;28;20415;-40
2022/01/24 00:12:25;;;;;;;2.67;2.47;;;7.90;99.90;;;;;;5088984;28;20843;-41
2022/01/24 00:17:33;;;;;;;6.20;2.47;;;8.00;99.90;;;;;;5089350;28;20441;-40
2022/01/24 00:28:12;;;;;;;2.70;2.50;;;7.90;99.90;;;;;;5089423;28;20541;-40
2022/01/24 00:30:39;;;;;;;2.63;2.43;;;7.90;99.90;;;;;;5088708;28;20971;-40
2022/01/24 00:33:05;;;;;;;3.30;2.30;;;7.90;99.90;;;;;;5088836;28;20208;-39
2022/01/24 00:35:31;;;;;;;3.13;2.10;;;7.90;99.90;;;;;;5086092;28;20501;-40
2022/01/24 00:38:00;;;;;;;2.40;2.20;;;8.00;99.90;;;;;;5083789;28;20517;-40
2022/01/24 00:40:27;;;;;;;2.33;2.13;;;7.70;99.90;;;;;;5087129;28;20390;-40
2022/01/24 00:42:56;;;;;;;2.40;2.20;;;7.80;99.90;;;;;;5088867;28;20458;-39
2022/01/24 00:45:32;;;;;;;2.27;1.97;;;7.60;99.90;;;;;;5087687;28;20514;-39
2022/01/24 00:55:43;;;;;;;2.20;2.00;;;7.60;99.90;;;;;;5088596;28;20426;-40
2022/01/24 00:58:09;;;;;;;2.30;2.10;;;7.40;99.90;;;;;;5088301;28;20484;-40
2022/01/24 01:00:35;;;;;;;2.73;2.37;;;7.30;99.90;;;;;;5088033;28;20427;-40
2022/01/24 01:03:00;;;;;;;2.30;2.10;;;7.60;99.90;;;;;;5088492;28;20971;-40
2022/01/24 01:05:41;;;;;;;2.40;2.20;;;7.40;99.90;;;;;;5086195;28;20438;-40
2022/01/24 01:18:49;;;;;;;2.20;2.00;;;7.10;99.90;;;;;;5088541;28;21001;-40
2022/01/24 01:21:15;;;;;;;2.87;2.47;;;7.10;99.90;;;;;;5078033;28;20468;-40
2022/01/24 01:23:50;;;;;;;2.40;2.20;;;7.20;99.90;;;;;;5079406;28;20426;-40
2022/01/24 01:26:35;;;;;;;1.80;1.70;;;7.30;99.90;;;;;;5074482;28;20462;-40
2022/01/24 01:29:07;;;;;;;3.70;1.67;;;7.50;99.90;;;;;;5088051;28;20898;-41
2022/01/24 01:31:43;;;;;;;1.80;1.70;;;7.40;99.90;;;;;;5087271;28;20435;-40
2022/01/24 01:53:27;;;;;;;2.23;2.03;;;7.70;99.90;;;;;;5076279;28;20445;-41
2022/01/24 01:55:47;;;;;;;3.00;1.80;;;7.50;99.90;;;;;;5084437;28;20916;-39
2022/01/24 01:58:19;;;;;;;2.50;2.10;;;7.30;99.90;;;;;;5087579;28;20434;-40
2022/01/24 02:00:50;;;;;;;3.23;1.90;;;7.30;99.90;;;;;;5086479;28;20180;-39
2022/01/24 02:03:17;;;;;;;2.40;2.20;;;7.60;99.90;;;;;;5087678;28;20476;-40
2022/01/24 02:05:43;;;;;;;2.07;1.87;;;7.40;99.90;;;;;;5086226;28;20429;-39
2022/01/24 02:08:09;;;;;;;1.87;1.60;;;7.50;99.90;;;;;;5086102;28;20501;-40
2022/01/24 02:10:38;;;;;;;2.57;2.20;;;7.40;99.90;;;;;;5087107;28;20898;-39
2022/01/24 02:13:04;;;;;;;1.90;1.80;;;7.20;99.90;;;;;;5087650;28;20552;-39
2022/01/24 02:25:56;;;;;;;2.03;1.90;;;7.00;99.90;;;;;;5080096;28;20453;-39
2022/01/24 02:28:24;;;;;;;1.83;1.60;;;7.10;99.90;;;;;;5087504;28;20418;-39
2022/01/24 02:33:36;;;;;;;2.20;2.00;;;7.10;99.90;;;;;;5087822;28;20434;-39
2022/01/24 02:36:02;;;;;;;1.90;1.77;;;6.90;99.90;;;;;;5084931;28;20495;-39
2022/01/24 02:49:27;;;;;;;2.03;1.87;;;7.00;99.90;;;;;;5091571;28;20429;-40
2022/01/24 02:52:00;;;;;;;1.83;1.60;;;6.90;99.90;;;;;;5081648;28;20435;-39
2022/01/24 02:54:29;;;;;;;1.90;1.80;;;7.20;99.90;;;;;;5088860;28;20457;-39
2022/01/24 02:56:55;;;;;;;2.40;1.73;;;7.10;99.90;;;;;;5090774;28;20445;-40
2022/01/24 02:59:21;;;;;;;1.87;1.77;;;7.00;99.90;;;;;;5091069;28;20740;-39
2022/01/24 03:01:47;;;;;;;2.10;1.77;;;6.90;99.90;;;;;;5090624;28;20533;-40
2022/01/24 03:04:13;;;;;;;1.70;1.60;;;6.80;99.90;;;;;;5091072;28;20453;-40
2022/01/24 03:06:39;;;;;;;2.13;1.93;;;6.80;99.90;;;;;;5086560;28;20462;-39
2022/01/24 03:09:05;;;;;;;1.90;1.80;;;7.00;99.90;;;;;;5087557;28;21021;-39
2022/01/24 03:12:01;;;;;;;2.40;2.20;;;6.90;99.90;;;;;;5089857;28;20847;-39
2022/01/24 03:14:19;;;;;;;2.27;2.07;;;7.00;99.90;;;;;;5078591;28;20430;-39
2022/01/24 03:16:45;;;;;;;2.07;1.87;;;6.80;99.90;;;;;;5090541;28;20446;-39
2022/01/24 03:19:13;;;;;;;2.20;1.80;;;7.00;99.90;;;;;;5090498;28;20866;-41
2022/01/24 03:21:38;;;;;;;2.10;1.90;;;6.70;99.90;;;;;;5086262;28;20417;-39
2022/01/24 03:24:04;;;;;;;1.73;1.60;;;6.80;99.90;;;;;;5084632;28;20422;-42
2022/01/24 03:26:30;;;;;;;3.97;1.63;;;6.70;99.90;;;;;;5083600;28;20196;-40
2022/01/24 03:28:56;;;;;;;1.63;1.50;;;6.90;99.90;;;;;;5090252;28;20429;-40
2022/01/24 03:31:21;;;;;;;2.40;2.20;;;6.70;99.90;;;;;;5089849;28;20222;-39
2022/01/24 03:33:47;;;;;;;4.13;1.63;;;6.60;99.90;;;;;;5090161;28;20184;-39
2022/01/24 03:36:13;;;;;;;1.90;1.77;;;6.80;99.90;;;;;;5088929;28;20279;-39
2022/01/24 03:38:38;;;;;;;2.00;1.80;;;6.60;99.90;;;;;;5080048;28;20201;-39
2022/01/24 03:41:04;;;;;;;2.20;1.90;;;6.50;99.90;;;;;;5089227;28;20693;-40
2022/01/24 03:43:30;;;;;;;1.70;1.57;;;6.60;99.90;;;;;;5090263;28;20203;-40
2022/01/24 03:46:26;;;;;;;2.63;1.90;;;6.60;99.90;;;;;;5090171;28;20180;-39
2022/01/24 03:48:52;;;;;;;2.10;1.80;;;6.60;99.90;;;;;;5089702;28;20358;-41
2022/01/24 03:51:18;;;;;;;1.73;1.63;;;6.50;99.90;;;;;;5088882;28;20768;-40
2022/01/24 03:53:45;;;;;;;1.93;1.70;;;6.70;99.90;;;;;;5073913;28;20417;-40
2022/01/24 03:56:11;;;;;;;2.00;1.80;;;6.70;99.90;;;;;;5085569;28;20434;-39
2022/01/24 03:58:37;;;;;;;3.53;2.23;;;6.70;99.90;;;;;;5088963;28;20477;-40
2022/01/24 04:01:05;;;;;;;2.03;1.83;;;6.60;99.90;;;;;;5089115;28;20517;-39
2022/01/24 04:03:31;;;;;;;1.77;1.67;;;6.60;99.90;;;;;;5089481;28;20804;-40
2022/01/24 04:05:57;;;;;;;2.27;1.90;;;6.70;99.90;;;;;;5089734;28;20433;-39
2022/01/24 04:08:23;;;;;;;2.33;2.13;;;6.60;99.90;;;;;;5077366;28;20427;-40
2022/01/24 04:10:52;;;;;;;1.73;1.63;;;6.80;99.90;;;;;;5088722;28;20234;-39
2022/01/24 04:16:09;;;;;;;2.00;1.80;;;6.50;99.90;;;;;;5089515;28;20509;-39
2022/01/24 04:18:42;;;;;;;2.00;1.70;;;6.80;99.90;;;;;;5089319;28;20831;-39
2022/01/24 04:26:42;;;;;;;2.20;1.80;;;6.70;99.90;;;;;;5084603;28;20515;-40
2022/01/24 04:29:08;;;;;;;2.03;1.93;;;6.80;99.90;;;;;;5089867;28;20477;-39
2022/01/24 04:31:34;;;;;;;2.53;1.97;;;6.90;99.90;;;;;;5088769;28;20192;-39
2022/01/24 04:34:00;;;;;;;2.50;1.63;;;7.00;99.90;;;;;;5089539;28;20682;-40
2022/01/24 04:36:27;;;;;;;3.43;1.93;;;6.80;99.90;;;;;;5089141;28;20445;-40
2022/01/24 04:38:53;;;;;;;2.20;2.00;;;6.50;99.90;;;;;;5077203;28;20189;-39
2022/01/24 04:41:23;;;;;;;2.10;1.90;;;6.40;99.90;;;;;;5088468;28;20718;-39
2022/01/24 04:43:55;;;;;;;2.30;1.83;;;6.40;99.90;;;;;;5089108;28;20912;-39
2022/01/24 04:54:38;;;;;;;2.30;1.87;;;6.60;99.90;;;;;;5079627;28;20456;-39
2022/01/24 04:57:00;;;;;;;2.23;1.80;;;6.50;99.90;;;;;;5082576;28;20545;-39
2022/01/24 04:59:26;;;;;;;4.03;1.50;;;6.70;99.90;;;;;;5088459;28;20565;-39
2022/01/24 05:01:51;;;;;;;1.90;1.60;;;6.50;99.90;;;;;;5087480;28;20180;-40
2022/01/24 05:04:17;;;;;;;1.73;1.63;;;6.50;99.90;;;;;;5088399;28;20172;-39
2022/01/24 05:06:43;;;;;;;2.10;1.80;;;6.70;99.90;;;;;;5088468;28;20192;-39
2022/01/24 05:09:08;;;;;;;2.10;1.97;;;6.60;99.90;;;;;;5076429;28;20219;-39
2022/01/24 05:11:50;;;;;;;2.07;1.77;;;6.60;99.90;;;;;;5088129;28;20521;-39
2022/01/24 05:25:27;;;;;;;2.53;2.30;;;6.40;99.90;;;;;;5086242;28;20426;-40
2022/01/24 05:27:53;;;;;;;2.37;2.17;;;6.50;99.90;;;;;;5088412;28;20430;-39
2022/01/24 05:30:18;;;;;;;2.50;2.30;;;6.50;99.90;;;;;;5078518;28;20196;-39
2022/01/24 05:32:44;;;;;;;4.23;1.93;;;6.60;99.90;;;;;;5086421;28;20222;-39
2022/01/24 05:35:10;;;;;;;2.53;2.03;;;6.80;99.90;;;;;;5088038;28;20184;-39
2022/01/24 05:37:36;;;;;;;2.20;1.90;;;6.50;99.90;;;;;;5084235;28;20504;-39
2022/01/24 05:40:03;;;;;;;2.03;1.70;;;6.60;99.90;;;;;;5085371;28;20458;-41
2022/01/24 05:42:29;;;;;;;2.30;2.10;;;6.60;99.90;;;;;;5088009;28;20457;-39
2022/01/24 05:44:55;;;;;;;2.33;2.07;;;6.50;99.90;;;;;;5087865;28;20928;-40
2022/01/24 05:47:20;;;;;;;2.03;1.83;;;6.60;99.90;;;;;;5088074;28;20608;-39
2022/01/24 05:49:46;;;;;;;3.10;2.63;;;6.50;99.90;;;;;;5084811;28;20285;-39
2022/01/24 05:52:13;;;;;;;3.37;2.20;;;6.50;99.90;;;;;;5085985;28;20220;-39
2022/01/24 05:54:39;;;;;;;2.57;2.30;;;6.50;99.90;;;;;;5078133;28;20192;-39
2022/01/24 05:57:06;;;;;;;3.20;2.10;;;6.70;99.90;;;;;;5087297;28;20830;-39
2022/01/24 05:59:33;;;;;;;2.43;2.20;;;6.40;99.90;;;;;;5087687;28;20458;-39
2022/01/24 06:01:58;;;;;;;2.50;2.10;;;6.50;99.90;;;;;;5087249;28;20506;-40
2022/01/24 06:04:24;;;;;;;3.13;2.83;;;6.70;99.90;;;;;;5086161;28;21000;-39
2022/01/24 06:06:50;;;;;;;2.77;2.57;;;6.60;99.90;;;;;;5087542;28;20270;-39
2022/01/24 06:09:16;;;;;;;3.63;2.20;;;6.70;99.90;;;;;;5078463;28;20192;-39
2022/01/24 06:11:43;;;;;;;3.20;2.80;;;6.70;99.90;;;;;;5085738;28;20469;-40
2022/01/24 06:14:09;;;;;;;3.20;2.90;;;6.80;99.90;;;;;;5084377;28;20346;-39
2022/01/24 06:16:34;;;;;;;2.73;2.53;;;6.70;99.90;;;;;;5087297;28;20521;-39
2022/01/24 06:19:00;;;;;;;3.57;2.73;;;6.70;99.90;;;;;;5087300;28;20577;-39
2022/01/24 06:21:26;;;;;;;4.00;2.50;;;6.70;99.90;;;;;;5085202;28;20241;-40
2022/01/24 06:23:51;;;;;;;3.20;2.80;;;6.60;99.90;;;;;;5076493;28;20647;-40
2022/01/24 06:26:17;;;;;;;3.43;2.90;;;6.30;99.90;;;;;;5083733;28;20184;-40
2022/01/24 06:28:43;;;;;;;3.30;3.00;;;6.30;99.90;;;;;;5087486;28;20197;-41
2022/01/24 06:31:09;;;;;;;3.10;2.90;;;6.40;99.90;;;;;;5086736;28;20200;-39
2022/01/24 06:33:34;;;;;;;3.53;3.23;;;6.70;99.90;;;;;;5084481;28;20184;-39
2022/01/24 06:36:00;;;;;;;3.87;3.07;;;6.40;99.90;;;;;;5087057;28;20196;-40
2022/01/24 06:38:26;;;;;;;2.97;2.77;;;6.60;99.90;;;;;;5079753;28;20227;-39
2022/01/24 06:40:52;;;;;;;3.20;2.67;;;6.70;99.90;;;;;;5080817;28;20415;-39
2022/01/24 06:43:18;;;;;;;3.30;2.87;;;6.50;99.90;;;;;;5082123;28;20419;-39
2022/01/24 06:45:44;;;;;;;3.40;3.10;;;6.40;99.90;;;;;;5087138;28;20183;-40
2022/01/24 06:48:09;;;;;;;3.97;3.57;;;6.60;99.90;;;;;;5086661;28;20667;-41
2022/01/24 06:50:35;;;;;;;3.93;3.40;;;6.40;99.90;;;;;;5086835;28;20438;-40
2022/01/24 06:53:01;;;;;;;3.17;2.97;;;6.40;99.90;;;;;;5082304;28;20286;-40
2022/01/24 06:55:27;;;;;;;3.90;3.50;;;6.40;99.90;;;;;;5082566;28;20215;-40
2022/01/24 06:57:53;;;;;;;3.73;3.43;;;6.30;99.90;;;;;;5085790;28;20204;-39
2022/01/24 07:00:25;;;;;;;3.77;3.30;;;6.30;99.90;;;;;;5085188;28;20948;-39
2022/01/24 07:02:52;;;;;;;4.20;3.80;;;6.30;99.90;;;;;;5086384;28;20614;-41
2022/01/24 07:05:18;;;;;;;4.23;3.63;;;6.50;99.90;;;;;;5085283;28;20437;-39
2022/01/24 07:07:43;;;;;;;4.30;3.90;;;6.20;99.90;;;;;;5084720;28;20422;-39
2022/01/24 07:10:09;;;;;;;4.27;3.87;;;6.30;99.90;;;;;;5074266;28;20192;-40
2022/01/24 07:12:35;;;;;;;4.00;3.60;;;6.50;99.90;;;;;;5086503;28;20216;-39
2022/01/24 07:15:07;;;;;;;7.10;3.70;;;6.30;99.90;;;;;;5086278;28;20196;-39
2022/01/24 07:20:18;;;;;;;3.97;3.67;;;6.50;99.90;;;;;;5049123;28;20884;-40
2022/01/24 07:22:44;;;;;;;5.20;4.70;;;6.30;99.90;;;;;;5085762;28;20430;-39
2022/01/24 07:25:10;;;;;;;5.77;4.77;;;6.50;99.90;;;;;;5077628;28;20204;-39
2022/01/24 07:27:36;;;;;;;4.60;4.20;;;6.50;99.90;;;;;;5086497;28;20185;-41
2022/01/24 07:30:04;;;;;;;5.10;4.70;;;6.40;99.90;;;;;;5085939;28;20819;-40
2022/01/24 07:32:30;;;;;;;4.97;4.57;;;6.10;99.90;;;;;;5086913;28;20981;-39
2022/01/24 07:34:56;;;;;;;5.33;4.93;;;6.20;99.90;;;;;;5088337;28;20422;-39
2022/01/24 07:37:24;;;;;;;5.67;5.07;;;6.30;99.90;;;;;;5089834;28;20419;-39
2022/01/24 07:39:51;;;;;;;4.97;4.47;;;6.20;99.90;;;;;;5081220;28;20483;-40
2022/01/24 07:42:27;;;;;;;6.13;4.50;;;6.40;99.90;;;;;;5088807;28;20845;-40
2022/01/24 07:44:53;;;;;;;5.00;4.60;;;6.30;99.90;;;;;;5088460;28;20444;-40
2022/01/24 07:47:19;;;;;;;5.40;4.70;;;6.20;99.90;;;;;;5089735;28;20989;-40
2022/01/24 07:49:44;;;;;;;4.93;4.53;;;6.20;99.90;;;;;;5088908;28;20834;-40
2022/01/24 07:52:12;;;;;;;4.83;4.27;;;6.10;99.90;;;;;;5090967;28;20192;-39
2022/01/24 07:54:37;;;;;;;6.60;4.87;;;6.30;99.90;;;;;;5074634;28;20345;-40
2022/01/24 07:57:03;;;;;;;5.43;5.03;;;6.30;99.90;;;;;;5083550;28;20553;-39
2022/01/24 07:59:29;;;;;;;5.77;4.60;;;6.30;99.90;;;;;;5087530;28;20216;-40
2022/01/24 08:01:55;;;;;;;5.63;5.13;;;6.30;99.90;;;;;;5088519;28;21109;-39
2022/01/24 08:04:20;;;;;;;6.30;5.70;;;6.40;99.90;;;;;;5089915;28;20192;-39
2022/01/24 08:06:47;;;;;;;6.20;5.70;;;6.40;99.90;;;;;;5085060;28;20272;-39
2022/01/24 08:09:13;;;;;;;5.40;4.90;;;6.50;99.90;;;;;;5076731;28;20316;-39
2022/01/24 08:11:39;;;;;;;6.50;5.90;;;6.20;99.90;;;;;;5086446;28;20437;-39
2022/01/24 08:14:05;;;;;;;6.10;5.50;;;6.10;99.90;;;;;;5087497;28;20509;-40
2022/01/24 08:16:31;;;;;;;6.07;5.03;;;6.20;99.90;;;;;;5085930;28;20230;-41
2022/01/24 08:18:58;;;;;;;5.23;4.67;;;6.40;99.90;;;;;;5088346;28;20497;-39
2022/01/24 08:21:24;;;;;;;5.47;4.97;;;6.50;99.90;;;;;;5088320;28;20267;-39
2022/01/24 08:23:50;;;;;;;5.30;4.80;;;6.30;99.90;;;;;;5082307;28;20435;-39
2022/01/24 08:26:17;;;;;;;5.00;4.60;;;6.30;99.90;;;;;;5082003;28;20961;-39
2022/01/24 08:28:42;;;;;;;6.57;5.93;;;6.40;99.90;;;;;;5085854;28;20426;-40
2022/01/24 08:31:08;;;;;;;4.97;4.50;;;6.50;99.90;;;;;;5088413;28;20448;-41
2022/01/24 08:33:34;;;;;;;8.67;4.60;;;6.20;99.90;;;;;;5083316;28;20423;-39
2022/01/24 08:36:01;;;;;;;6.00;5.50;;;6.50;99.90;;;;;;5087181;28;20492;-39
2022/01/24 08:38:29;;;;;;;5.80;5.30;;;6.40;99.90;;;;;;5073250;28;20185;-39
2022/01/24 08:40:59;;;;;;;6.00;5.40;;;6.20;99.90;;;;;;5074196;28;20504;-39
2022/01/24 08:43:39;;;;;;;6.93;6.23;;;6.30;99.90;;;;;;5087486;28;20805;-39
2022/01/24 08:46:05;;;;;;;6.60;6.00;;;6.10;99.90;;;;;;5088552;28;20438;-40
2022/01/24 08:48:31;;;;;;;6.90;5.43;;;6.20;99.90;;;;;;5088764;28;20418;-39
2022/01/24 08:50:59;;;;;;;6.67;6.17;;;6.30;99.90;;;;;;5087872;28;21099;-39
2022/01/24 08:53:31;;;;;;;5.93;5.20;;;6.30;99.90;;;;;;5088707;28;20446;-39
2022/01/24 08:55:59;;;;;;;5.50;5.00;;;6.20;99.90;;;;;;5075410;28;20728;-39
2022/01/24 08:58:26;;;;;;;7.53;5.00;;;6.30;99.90;;;;;;5087350;28;20816;-40
2022/01/24 09:00:53;;;;;;;5.17;4.60;;;6.20;99.90;;;;;;5086642;28;20828;-39
2022/01/24 09:03:19;;;;;;;4.90;4.40;;;6.30;99.90;;;;;;5088000;28;20423;-40
2022/01/24 09:05:47;;;;;;;6.33;5.73;;;6.20;99.90;;;;;;5087677;28;20425;-39
2022/01/24 09:08:13;;;;;;;4.90;4.50;;;6.20;99.90;;;;;;5088128;28;20192;-40
2022/01/24 09:10:40;;;;;;;5.70;5.20;;;6.50;99.90;;;;;;5077222;28;20445;-40
2022/01/24 09:13:07;;;;;;;6.63;5.77;;;6.20;99.90;;;;;;5084140;28;21324;-39
2022/01/24 09:15:33;;;;;;;6.07;5.37;;;6.10;99.90;;;;;;5075269;28;20427;-40
2022/01/24 09:17:59;;;;;;;10.07;5.90;;;6.20;99.90;;;;;;5088030;28;20440;-39
2022/01/24 09:20:25;;;;;;;7.83;6.00;;;6.50;99.90;;;;;;5087444;28;20937;-39
2022/01/24 09:22:51;;;;;;;6.03;5.53;;;6.60;99.90;;;;;;5087100;28;20222;-40
2022/01/24 09:25:19;;;;;;;5.77;5.27;;;6.40;99.90;;;;;;5081496;28;20259;-39
2022/01/24 09:27:46;;;;;;;6.70;6.10;;;6.60;99.90;;;;;;5088041;28;20410;-39
2022/01/24 09:30:14;;;;;;;7.80;6.77;;;6.10;99.90;;;;;;5087003;28;20539;-40
2022/01/24 09:32:41;;;;;;;6.57;6.07;;;6.00;99.90;;;;;;5086392;28;20483;-39
2022/01/24 09:35:08;;;;;;;6.20;5.60;;;6.20;99.90;;;;;;5088419;28;20452;-39
2022/01/24 09:37:35;;;;;;;6.60;5.90;;;6.40;99.90;;;;;;5087928;28;20433;-39
2022/01/24 09:40:00;;;;;;;7.30;6.00;;;6.20;99.90;;;;;;5079142;28;20466;-40
2022/01/24 09:42:27;;;;;;;5.80;5.30;;;6.30;99.90;;;;;;5084220;28;20940;-39
2022/01/24 09:44:53;;;;;;;6.73;6.13;;;6.50;99.90;;;;;;5086672;28;20509;-39
2022/01/24 09:47:18;;;;;;;6.27;5.43;;;6.20;99.90;;;;;;5087412;28;20517;-40
2022/01/24 09:49:47;;;;;;;6.63;6.03;;;6.20;99.90;;;;;;5087484;28;20375;-40
2022/01/24 09:52:13;;;;;;;6.00;5.40;;;6.50;99.90;;;;;;5087560;28;20728;-39
2022/01/24 09:54:39;;;;;;;5.50;5.00;;;6.40;99.90;;;;;;5081309;28;21070;-39
2022/01/24 09:57:05;;;;;;;6.70;6.00;;;6.40;99.90;;;;;;5081533;28;20533;-39
2022/01/24 09:59:32;;;;;;;7.90;5.30;;;6.50;99.90;;;;;;5087583;28;20605;-39
2022/01/24 10:01:58;;;;;;;6.13;5.53;;;6.30;99.90;;;;;;5086998;28;20816;-39
2022/01/24 10:04:25;;;;;;;6.20;5.60;;;6.50;99.90;;;;;;5087613;28;20468;-39
2022/01/24 10:06:58;;;;;;;5.93;5.43;;;6.30;99.90;;;;;;5087834;28;20907;-39
2022/01/24 10:09:34;;;;;;;6.17;5.67;;;6.30;99.90;;;;;;5083592;28;20952;-38
2022/01/24 10:12:16;;;;;;;5.63;5.13;;;6.50;99.90;;;;;;5083753;28;20513;-39
2022/01/24 10:17:33;;;;;;;6.03;5.30;;;6.30;99.90;;;;;;5087668;28;20469;-40
2022/01/24 10:20:28;;;;;;;6.03;5.53;;;6.40;99.90;;;;;;5086643;28;20462;-40
2022/01/24 10:23:13;;;;;;;6.47;5.20;;;6.30;99.90;;;;;;5069099;28;20808;-39
2022/01/24 10:25:59;;;;;;;6.63;5.97;;;6.20;99.90;;;;;;5083051;28;20928;-40
2022/01/24 10:28:38;;;;;;;7.13;5.80;;;6.40;99.90;;;;;;5087120;28;20782;-39
2022/01/24 10:31:16;;;;;;;5.70;5.20;;;6.40;99.90;;;;;;5086478;28;20683;-39
2022/01/24 10:34:02;;;;;;;7.13;5.80;;;6.30;99.90;;;;;;5087641;28;20441;-45
2022/01/24 10:36:34;;;;;;;6.30;5.47;;;6.30;99.90;;;;;;5087381;28;20516;-39
2022/01/24 10:39:28;;;;;;;6.17;5.57;;;6.20;99.90;;;;;;5087208;28;20454;-39
2022/01/24 10:44:55;;;;;;;6.77;5.63;;;6.30;99.90;;;;;;5079117;28;20463;-39
2022/01/24 10:47:28;;;;;;;5.30;4.80;;;6.40;99.90;;;;;;5087510;28;20444;-39
2022/01/24 10:49:54;;;;;;;5.93;5.07;;;6.30;99.90;;;;;;5086656;28;20452;-39
2022/01/24 10:52:29;;;;;;;6.73;6.03;;;6.20;99.90;;;;;;5087140;28;20418;-40
2022/01/24 10:55:12;;;;;;;9.90;6.20;;;6.30;99.90;;;;;;5080600;28;20442;-40
2022/01/24 10:57:40;;;;;;;6.27;5.67;;;6.10;99.90;;;;;;5085254;28;20438;-39
2022/01/24 11:00:19;;;;;;;6.57;5.97;;;6.20;99.90;;;;;;5086545;28;20457;-39
2022/01/24 11:02:49;;;;;;;6.43;5.90;;;6.20;99.90;;;;;;5087060;28;20415;-40
2022/01/24 11:05:16;;;;;;;7.53;5.93;;;6.30;99.90;;;;;;5086767;28;21004;-41
2022/01/24 11:08:09;;;;;;;5.97;5.43;;;6.50;99.90;;;;;;5087167;28;20520;-40
2022/01/24 11:10:50;;;;;;;6.80;6.10;;;6.60;99.90;;;;;;5081248;28;20491;-40
2022/01/24 11:13:21;;;;;;;5.87;5.27;;;6.40;99.90;;;;;;5088008;28;20430;-40
2022/01/24 11:15:56;;;;;;;6.53;6.00;;;6.40;99.90;;;;;;5089149;28;20433;-39
2022/01/24 11:18:23;;;;;;;6.83;6.13;;;6.40;99.90;;;;;;5090780;28;20422;-39
2022/01/24 11:20:50;;;;;;;6.67;5.87;;;6.20;99.90;;;;;;5090185;28;20947;-40
2022/01/24 11:23:21;;;;;;;8.17;5.70;;;6.40;99.90;;;;;;5088206;28;20471;-42
2022/01/24 11:25:49;;;;;;;6.53;5.93;;;6.40;99.90;;;;;;5083693;28;20428;-39
2022/01/24 11:28:15;;;;;;;6.90;6.23;;;6.30;99.90;;;;;;5086686;28;20422;-39
2022/01/24 11:30:41;;;;;;;6.60;6.00;;;6.60;99.90;;;;;;5089288;28;20437;-39
2022/01/24 11:33:17;;;;;;;6.27;5.67;;;6.40;99.90;;;;;;5089772;28;20422;-40
2022/01/24 11:35:55;;;;;;;6.30;5.70;;;6.30;99.90;;;;;;5089600;28;20180;-39
2022/01/24 11:38:28;;;;;;;6.87;6.03;;;6.30;99.90;;;;;;5088418;28;20939;-39
2022/01/24 11:41:01;;;;;;;6.97;6.27;;;6.30;99.90;;;;;;5079029;28;20436;-40
2022/01/24 11:43:35;;;;;;;8.60;5.80;;;6.30;99.90;;;;;;5089466;28;20817;-39
2022/01/24 11:46:06;;;;;;;8.50;6.60;;;6.50;99.90;;;;;;5089024;28;20433;-39
2022/01/24 11:48:34;;;;;;;8.23;6.10;;;6.40;99.90;;;;;;5089542;28;20433;-39
2022/01/24 11:51:06;;;;;;;8.13;7.27;;;6.20;99.90;;;;;;5089281;28;20414;-39
2022/01/24 11:53:36;;;;;;;7.40;6.70;;;6.30;99.90;;;;;;5089100;28;20414;-39
2022/01/24 11:56:19;;;;;;;7.37;6.23;;;6.50;99.90;;;;;;5078447;28;20462;-40
2022/01/24 11:58:45;;;;;;;7.73;6.23;;;6.30;99.90;;;;;;5086296;28;20459;-40
2022/01/24 12:01:18;;;;;;;9.00;7.13;;;6.60;99.90;;;;;;5088554;28;20422;-39
2022/01/24 12:03:51;;;;;;;6.77;6.17;;;6.60;99.90;;;;;;5089404;28;20476;-39
2022/01/24 12:06:19;;;;;;;6.70;6.10;;;6.40;99.90;;;;;;5089077;28;20456;-39
2022/01/24 12:08:51;;;;;;;7.67;6.77;;;6.50;99.90;;;;;;5088953;28;20847;-39
2022/01/24 12:11:19;;;;;;;6.67;6.07;;;6.40;99.90;;;;;;5079599;28;20439;-40
2022/01/24 12:13:52;;;;;;;8.10;7.30;;;6.30;99.90;;;;;;5087844;28;20895;-39
2022/01/24 12:16:18;;;;;;;7.27;6.57;;;6.20;99.90;;;;;;5088837;28;20804;-39
2022/01/24 12:18:48;;;;;;;7.20;6.30;;;6.50;99.90;;;;;;5089118;28;20470;-39
2022/01/24 12:21:23;;;;;;;6.93;6.33;;;6.30;99.90;;;;;;5087481;28;20426;-39
2022/01/24 12:23:55;;;;;;;8.60;6.33;;;6.30;99.90;;;;;;5087747;28;20772;-39
2022/01/24 12:26:23;;;;;;;8.07;5.83;;;6.20;99.90;;;;;;5080524;28;20446;-39
2022/01/24 12:28:53;;;;;;;8.90;6.27;;;6.30;99.90;;;;;;5088771;28;20476;-39
2022/01/24 12:31:21;;;;;;;6.37;5.77;;;6.30;99.90;;;;;;5087348;28;20431;-39
2022/01/24 12:34:07;;;;;;;7.07;6.40;;;6.40;99.90;;;;;;5087508;28;20859;-39
2022/01/24 12:36:39;;;;;;;7.27;6.13;;;6.20;99.90;;;;;;5087352;28;20422;-39
2022/01/24 12:39:10;;;;;;;8.40;6.50;;;6.50;99.90;;;;;;5087949;28;20704;-39
2022/01/24 12:41:42;;;;;;;6.67;6.00;;;6.60;99.90;;;;;;5077072;28;20665;-39
2022/01/24 12:46:16;;;;;;;6.50;5.87;;;6.50;99.90;;;;;;5088196;28;20411;-39
2022/01/24 12:46:54;;;;;;;8.60;6.17;;;6.60;99.90;;;;;;5086418;28;20423;-39
2022/01/24 12:49:20;;;;;;;7.77;6.73;;;6.60;99.90;;;;;;5088355;28;20770;-40
2022/01/24 12:51:46;;;;;;;7.40;6.57;;;6.40;99.90;;;;;;5087819;28;20402;-40
2022/01/24 12:54:11;;;;;;;7.23;6.53;;;6.30;99.90;;;;;;5087673;28;20276;-39
2022/01/24 12:56:37;;;;;;;6.83;6.23;;;6.50;99.90;;;;;;5077285;28;20204;-39
2022/01/24 12:59:03;;;;;;;7.90;7.10;;;6.50;99.90;;;;;;5087373;28;20212;-40
2022/01/24 13:01:33;;;;;;;6.50;5.90;;;6.50;99.90;;;;;;5085794;28;20403;-39
2022/01/24 13:04:02;;;;;;;7.23;6.57;;;6.20;99.90;;;;;;5087824;28;20188;-41
2022/01/24 13:06:33;;;;;;;7.17;6.57;;;6.30;99.90;;;;;;5087679;28;20434;-39
2022/01/24 13:09:13;;;;;;;8.27;7.03;;;6.20;99.90;;;;;;5087893;28;20483;-40
2022/01/24 13:11:53;;;;;;;8.33;7.50;;;6.20;99.90;;;;;;5076856;28;20782;-39
2022/01/24 13:14:31;;;;;;;7.20;6.60;;;6.30;99.90;;;;;;5088071;28;20520;-39
2022/01/24 13:23:11;;;;;;;7.33;6.50;;;6.30;99.90;;;;;;5086193;28;20426;-41
2022/01/24 13:25:39;;;;;;;8.20;7.27;;;6.50;99.90;;;;;;5082027;28;20796;-39
2022/01/24 13:28:13;;;;;;;7.20;6.50;;;6.50;99.90;;;;;;5082584;28;20418;-40
2022/01/24 13:30:57;;;;;;;8.20;7.50;;;6.40;99.90;;;;;;5087057;28;20444;-40
2022/01/24 13:33:25;;;;;;;9.67;6.97;;;6.40;99.90;;;;;;5087780;28;20533;-40
2022/01/24 13:36:00;;;;;;;8.73;7.20;;;6.20;99.90;;;;;;5087745;28;20426;-41
2022/01/24 13:38:33;;;;;;;7.80;7.10;;;6.30;99.90;;;;;;5087114;28;20505;-41
2022/01/24 13:41:09;;;;;;;9.60;6.87;;;6.30;99.90;;;;;;5081008;28;20434;-39
2022/01/24 13:44:04;;;;;;;7.40;6.70;;;6.40;99.90;;;;;;5078595;28;20419;-39
2022/01/24 13:46:40;;;;;;;10.77;7.90;;;6.50;99.90;;;;;;5085379;28;20491;-39
2022/01/24 13:49:16;;;;;;;7.80;7.00;;;6.80;99.90;;;;;;5087029;28;20418;-40
2022/01/24 13:51:49;;;;;;;7.30;6.60;;;6.80;99.90;;;;;;5086918;28;20428;-39
2022/01/24 13:54:26;;;;;;;10.07;7.73;;;6.50;99.90;;;;;;5087052;28;20471;-40
2022/01/24 13:57:18;;;;;;;8.27;6.80;;;6.30;99.90;;;;;;5075759;28;20455;-40
2022/01/24 13:59:44;;;;;;;8.13;7.23;;;6.10;99.90;;;;;;5084373;28;20513;-39
2022/01/24 14:02:11;;;;;;;8.43;7.50;;;6.40;99.90;;;;;;5087390;28;20535;-40
2022/01/24 14:04:46;;;;;;;7.97;7.10;;;6.20;99.90;;;;;;5086889;28;20916;-40
2022/01/24 14:07:28;;;;;;;8.63;7.60;;;6.20;99.90;;;;;;5087074;28;20309;-41
2022/01/24 14:10:01;;;;;;;7.67;6.80;;;6.20;99.90;;;;;;5086525;28;20426;-40
2022/01/24 14:12:51;;;;;;;8.23;7.27;;;6.10;99.90;;;;;;5080682;28;20499;-39
2022/01/24 14:15:39;;;;;;;7.67;6.97;;;6.30;99.90;;;;;;5083270;28;20441;-39
2022/01/24 14:20:32;;;;;;;7.93;6.87;;;6.20;99.90;;;;;;5086260;28;20549;-42
2022/01/24 14:22:58;;;;;;;9.37;7.30;;;6.20;99.90;;;;;;5086016;28;20513;-40
2022/01/24 14:25:26;;;;;;;8.87;7.03;;;6.40;99.90;;;;;;5087230;28;20665;-41
2022/01/24 14:27:54;;;;;;;7.27;6.57;;;6.20;99.90;;;;;;5074559;28;21019;-40
2022/01/24 14:30:26;;;;;;;7.60;6.83;;;6.20;99.90;;;;;;5086090;28;20474;-40
2022/01/24 14:33:04;;;;;;;8.37;7.47;;;6.20;99.90;;;;;;5086338;28;20445;-40
2022/01/24 14:35:37;;;;;;;9.60;7.33;;;6.50;99.90;;;;;;5086800;28;20590;-39
2022/01/24 14:38:05;;;;;;;7.53;6.83;;;6.30;99.90;;;;;;5086690;28;20501;-39
2022/01/24 14:40:50;;;;;;;7.93;7.23;;;6.50;99.90;;;;;;5086155;28;20513;-40
2022/01/24 14:46:12;;;;;;;8.83;7.43;;;6.40;99.90;;;;;;5088302;28;20422;-39
2022/01/24 14:48:58;;;;;;;7.50;6.67;;;6.70;99.90;;;;;;5090657;28;20443;-39
2022/01/24 14:51:30;;;;;;;10.53;7.10;;;6.50;99.90;;;;;;5089628;28;20427;-39
2022/01/24 14:54:01;;;;;;;7.37;6.63;;;6.50;99.90;;;;;;5090706;28;20432;-39
2022/01/24 14:56:27;;;;;;;7.80;6.60;;;6.60;99.90;;;;;;5084847;28;20451;-42
2022/01/24 14:58:54;;;;;;;7.80;7.00;;;6.60;99.90;;;;;;5086686;28;20422;-41
2022/01/24 15:01:20;;;;;;;7.27;6.57;;;6.50;99.90;;;;;;5086792;28;20418;-40
2022/01/24 15:03:46;;;;;;;8.77;7.97;;;6.40;99.90;;;;;;5089239;28;20426;-39
2022/01/24 15:06:14;;;;;;;8.30;7.30;;;6.50;99.90;;;;;;5090915;28;20425;-39
2022/01/24 15:08:42;;;;;;;8.00;6.77;;;6.40;99.90;;;;;;5090626;28;20662;-40
2022/01/24 15:11:12;;;;;;;7.27;6.40;;;6.50;99.90;;;;;;5087834;28;20457;-39